Portada
METAR-TAF:

METAR-TAF

Aeropuertos :

Curazao, Antillas Neerlandesas

Aeropuerto Internacional Hato

latitud: 12-12N, longitud: 068-58W, altitud: 9 m

Observación

El informe se hizo hace 44 minutos, a las 18:00 UTC
Viento 17 kt del este
Temperatura 32°C
Humedad 67%
Presión 1010 hPa
Visibilidad 10 km o más
Escasas nubes a una altura de 2500 ft

METAR: TNCC 171800Z 10017KT 9999 FEW025 32/25 Q1010 NOSIG

Hora: 14:44 (18:44 UTC)

Pronóstico

El informe se hizo hace 3 horas y 14 minutos, a las 15:30 UTC
Pronóstico válido del 17 a las 18 UTC al 18 a las 18 UTC
Viento 17 kt del este-sureste
Visibilidad 10 km o más
Nubes dispersas a una altura de 2000 ft

TAF: TNCC 171530Z 1718/1818 11017KT 9999 SCT020

Observaciones y pronósticos meteorológicos de más de 4000 aeropuertos (mensajes METAR y TAF).

Los puntos amarillos y rojos representan las estaciones disponibles.

Ponga el ratón en el punto deseado para ver el nombre de la estación.

Haga clic para ver las observaciones y los pronósticos meteorológicos.

Para cambiar el mapa : haga clic en los botones verdes con una cruz de color negro para hacer un zoom, en el botón verde con un guión para alejar o en las flechas verdes para mapas adyacentes.


METAR-TAF: